Hastings Natural History Reservation, California Weather observations

Data are for 10 minute period ending at time listed.
 Day   Time   Solar   Ave.   Ave.  Ave.  Vector  Max.   Baro.   Total    
  of    of     Rad.   Air    Rel.  Wind   Wind   Wind  Press.  Precip.   
Year   Day            Temp.  Hum.  Speed  Dir.   Gust                    
2016   (PST)  Kw/m2    F      %     mph   deg.    mph    mb.     in.     
-------------------------------------------------------------------------
  40    0:00   0.00   53.3    49    2.0    54     3.7   958.8    0.00 
  40    0:10   0.00   52.1    53    2.1    57     3.4   958.8    0.00 
  40    0:20   0.00   51.2    55    2.8    55     4.5   958.7    0.00 
  40    0:30   0.00   51.0    55    3.1    56     4.4   958.6    0.00 
  40    0:40   0.00   49.9    57    3.2    48     4.5   958.6    0.00 
  40    0:50   0.00   49.4    58    3.1    52     4.5   958.6    0.00 
  40    1:00   0.00   50.1    55    3.1    58     4.7   958.5    0.00 
  40    1:10   0.00   50.2    55    3.4    56     4.8   958.5    0.00 
  40    1:20   0.00   50.0    55    2.8    57     4.5   958.5    0.00 
  40    1:30   0.00   50.4    52    2.8    58     4.8   958.4    0.00 
  40    1:40   0.00   53.2    46    2.9    53     5.5   958.4    0.00 
  40    1:50   0.00   51.1    52    2.2    51     3.9   958.4    0.00 
  40    2:00   0.00   50.1    54    2.4    52     4.9   958.4    0.00 
  40    2:10   0.00   49.9    54    2.0    47     3.1   958.4    0.00 
  40    2:20   0.00   52.8    45    2.2    39     5.0   958.4    0.00 
  40    2:30   0.00   55.7    40    2.4    37     4.6   958.5    0.00 
  40    2:40   0.00   56.6    38    2.2    28     4.2   958.5    0.00 
  40    2:50   0.00   57.5    37    2.5    41     5.5   958.5    0.00 
  40    3:00   0.00   57.8    35    1.8    34     4.0   958.4    0.00 
  40    3:10   0.00   58.2    34    2.1    39     3.4   958.4    0.00 
  40    3:20   0.00   58.8    32    2.0    39     3.6   958.3    0.00 
  40    3:30   0.00   59.1    32    2.1    36     3.9   958.2    0.00 
  40    3:40   0.00   59.2    32    1.8    45     3.7   958.3    0.00 
  40    3:50   0.00   58.7    32    2.4    45     4.5   958.3    0.00 
  40    4:00   0.00   58.3    33    2.1    62     3.8   958.3    0.00 
  40    4:10   0.00   56.1    38    1.6    75     3.1   958.3    0.00 
  40    4:20   0.00   54.9    40    2.1    66     4.3   958.3    0.00 
  40    4:30   0.00   54.2    42    2.1    62     6.0   958.3    0.00 
  40    4:40   0.00   56.1    35    1.9    37     4.7   958.3    0.00 
  40    4:50   0.00   57.8    33    1.9    33     5.0   958.4    0.00 
  40    5:00   0.00   57.9    34    2.9    57     4.7   958.6    0.00 
  40    5:10   0.00   57.3    36    2.7    56     4.8   958.7    0.00 
  40    5:20   0.00   57.3    35    1.4    65     3.9   958.8    0.00 
  40    5:30   0.00   56.1    38    0.7    42     1.8   958.7    0.00 
  40    5:40   0.00   52.1    49    1.0    57     3.6   958.8    0.00 
  40    5:50   0.00   48.1    58    2.2    56     3.8   958.9    0.00 
  40    6:00   0.00   46.8    61    1.0    60     3.2   958.8    0.00 
  40    6:10   0.00   46.6    60    1.8    52     4.5   958.8    0.00 
  40    6:20   0.00   48.4    51    2.3    66     3.9   958.7    0.00 
  40    6:30   0.00   54.8    36    2.7    54     5.3   958.8    0.00 
  40    6:40   0.00   56.3    35    2.5    55     6.1   958.9    0.00 
  40    6:50   0.00   56.1    36    1.9    60     5.6   959.1    0.00 
  40    7:00   0.00   54.2    42    1.8    66     3.7   959.3    0.00 
  40    7:10   0.00   51.6    47    0.9    58     2.7   959.2    0.00 
  40    7:20   0.00   50.1    53    0.8    57     2.5   959.4    0.00 
  40    7:30   0.00   48.3    57    1.6    60     2.6   959.6    0.00 
  40    7:40   0.01   47.4    61    2.2    72     3.7   959.7    0.00 
  40    7:50   0.01   48.0    59    2.0    67     4.1   959.6    0.00 
  40    8:00   0.01   48.7    59    0.6    54     2.3   959.7    0.00 
  40    8:10   0.01   47.6    64    1.0    56     3.0   959.6    0.00 
  40    8:20   0.01   47.6    64    0.1    53     1.2   959.6    0.00 
  40    8:30   0.01   48.8    61    0.7    73     2.6   959.6    0.00 
  40    8:40   0.01   50.5    57    0.9    82     2.2   959.6    0.00 
  40    8:50   0.01   54.2    48    2.4    73     4.6   959.6    0.00 
  40    9:00   0.01   56.6    45    2.5    72     4.2   959.7    0.00 
  40    9:10   0.01   58.0    43    2.2    67     4.6   959.8    0.00 
  40    9:20   0.01   59.9    39    1.9    60     3.7   959.9    0.00 
  40    9:30   0.01   62.6    34    2.0    43     3.0   959.9    0.00 
  40    9:40   0.02   64.5    31    1.5    41     3.0   959.8    0.00 
  40    9:50   0.03   65.8    30    1.1    38     2.9   959.8    0.00 
  40   10:00   0.05   66.9    29    1.0    12     2.9   959.8    0.00 
  40   10:10   0.12   67.7    28    1.4   284     3.8   959.9    0.00 
  40   10:20   0.06   69.7    26    1.3    30     4.0   959.9    0.00 
  40   10:30   0.04   70.4    25    0.7    18     3.2   959.9    0.00 
  40   10:40   0.05   71.0    25    1.2   295     4.7   959.8    0.00 
  40   10:50   0.06   72.0    24    1.3    27     3.0   959.8    0.00 
  40   11:00   0.05   73.4    22    1.2     9     5.2   959.6    0.00 
  40   11:10   0.06   74.6    21    1.1    13     4.2   959.5    0.00 
  40   11:20   0.06   74.8    21    1.2   354     4.6   959.3    0.00 
  40   11:30   0.07   75.3    20    1.1   340     2.9   959.2    0.00 
  40   11:40   0.10   75.4    21    0.9    45     3.1   959.0    0.00 
  40   11:50   0.12   75.6    20    0.8    13     2.7   958.6    0.00 
  40   12:00   0.14   75.7    21    1.1   313     3.9   958.4    0.00 
  40   12:10   0.17   76.7    20    1.8   301     5.7   958.1    0.00 
  40   12:20   0.16   77.2    20    1.6   313     4.5   957.8    0.00 
  40   12:30   0.41   77.3    20    1.8   288     6.0   957.5    0.00 
  40   12:40   0.40   78.1    19    1.5   265     4.7   957.3    0.00 
  40   12:50   0.10   78.2    18    3.8   248     6.5   957.2    0.00 
  40   13:00   0.10   78.9    17    4.4   249     7.9   956.9    0.00 
  40   13:10   0.12   79.1    18    3.2   258     6.9   956.8    0.00 
  40   13:20   0.24   79.2    17    1.9   273     5.1   956.6    0.00 
  40   13:30   0.40   79.1    17    4.4   252     7.9   956.4    0.00 
  40   13:40   0.35   78.1    18    3.7   241     7.9   956.4    0.00 
  40   13:50   0.58   78.8    18    2.9   264     7.2   956.4    0.00 
  40   14:00   0.60   79.0    16    3.4   254     7.2   956.5    0.00 
  40   14:10   0.36   79.4    18    1.3   275     2.8   956.5    0.00 
  40   14:20   0.47   79.4    18    2.6   259     5.8   956.4    0.00 
  40   14:30   0.55   80.3    18    2.9   254     6.5   956.5    0.00 
  40   14:40   0.52   80.6    18    2.1   278     4.9   956.6    0.00 
  40   14:50   0.49   80.4    17    2.6   264     6.2   956.7    0.00 
  40   15:00   0.40   80.0    17    1.5   275     5.3   956.8    0.00 
  40   15:10   0.23   79.9    17    1.7   260     3.3   957.0    0.00 
  40   15:20   0.23   79.1    19    2.2   277     7.3   957.0    0.00 
  40   15:30   0.19   78.0    22    2.2   254     6.9   956.9    0.00 
  40   15:40   0.17   76.7    23    3.3   248     9.6   956.8    0.00 
  40   15:50   0.13   75.5    24    2.6   249     9.0   956.8    0.00 
  40   16:00   0.10   74.4    24    2.0   252     5.9   956.7    0.00 
  40   16:10   0.10   73.4    26    1.6   249     4.3   956.8    0.00 
  40   16:20   0.09   73.0    25    3.3   237     6.8   956.9    0.00 
  40   16:30   0.07   72.3    27    2.4   254     6.6   957.1    0.00 
  40   16:40   0.07   71.2    28    0.8   272     2.5   956.9    0.00 
  40   16:50   0.07   70.1    32    0.3     7     1.7   957.0    0.00 
  40   17:00   0.10   69.3    33    0.2    47     1.4   957.1    0.00 
  40   17:10   0.07   69.5    32    1.7   264     5.8   957.4    0.00 
  40   17:20   0.05   68.9    30    1.8   267     5.4   957.5    0.00 
  40   17:30   0.03   66.3    33    0.7   207     2.8   957.5    0.00 
  40   17:40   0.01   64.1    35    0.4   313     1.6   957.6    0.00 
  40   17:50   0.00   61.6    43    1.2    40     2.4   957.9    0.00 
  40   18:00   0.00   59.5    44    0.0    80     0.7   958.1    0.00 
  40   18:10   0.00   58.0    47    0.8   236     2.2   958.3    0.00 
  40   18:20   0.00   56.2    53    0.8    62     2.4   958.5    0.00 
  40   18:30   0.00   54.7    55    1.2    53     3.1   958.7    0.00 
  40   18:40   0.00   53.3    56    1.0    52     2.3   958.9    0.00 
  40   18:50   0.00   52.4    58    0.8    59     1.8   959.0    0.00 
  40   19:00   0.00   51.8    59    0.9    55     1.5   959.2    0.00 
  40   19:10   0.00   51.2    61    2.0    46     2.9   959.3    0.00 
  40   19:20   0.00   50.5    62    1.5    48     2.6   959.4    0.00 
  40   19:30   0.00   50.4    61    1.1    47     2.1   959.4    0.00 
  40   19:40   0.00   49.7    64    1.3    53     2.9   959.4    0.00 
  40   19:50   0.00   49.3    64    1.0    54     2.2   959.4    0.00 
  40   20:00   0.00   49.1    64    0.5    60     1.9   959.3    0.00 
  40   20:10   0.00   49.4    63    0.9    73     2.6   959.3    0.00 
  40   20:20   0.00   49.6    63    1.0    69     3.9   959.1    0.00 
  40   20:30   0.00   49.5    64    1.1    63     3.2   959.0    0.00 
  40   20:40   0.00   49.5    63    1.1    51     2.2   959.0    0.00 
  40   20:50   0.00   49.2    64    0.8    46     2.4   959.0    0.00 
  40   21:00   0.00   48.7    66    0.3    54     1.4   959.0    0.00 
  40   21:10   0.00   48.5    64    0.4    44     1.5   959.0    0.00 
  40   21:20   0.00   48.4    64    0.1    37     1.1   959.1    0.00 
  40   21:30   0.00   48.4    63    0.2    49     2.4   959.2    0.00 
  40   21:40   0.00   48.3    63    0.7    69     2.5   959.4    0.00 
  40   21:50   0.00   48.2    63    1.0    60     2.1   959.4    0.00 
  40   22:00   0.00   47.9    63    0.2    39     0.9   959.4    0.00 
  40   22:10   0.00   47.7    62    0.4    59     1.5   959.4    0.00 
  40   22:20   0.00   47.7    62    0.2    64     1.5   959.3    0.00 
  40   22:30   0.00   47.6    61    0.2   129     1.1   959.4    0.00 
  40   22:40   0.00   47.7    61    0.1   109     2.0   959.4    0.00 
  40   22:50   0.00   47.4    61    0.1    46     1.1   959.4    0.00 
  40   23:00   0.00   47.3    63    0.9    68     2.8   959.4    0.00 
  40   23:10   0.00   47.5    63    0.6    45     2.6   959.3    0.00 

Return to Hastings Natural History Reservation graphs page.


Western Regional Climate Center,wrcc@dri.edu